Aérodrome :
LOGIN :

S'inscrire | Disclaimer

   EN    FR    IT 

 










Légende :    VFR   VFR Marginal   IFR   IFR Intensif   IFR Très Intensif
Visi : 
Plafond : 
>= 8 km
>= 3000ft
5 à 8 km
1000 à 3000 ft
1500m à 5 km
500 à 1000 ft
800 à 1500m
200 à 500 ft
< 800m
< 200 ft
Symboles :   Orages  Brouillard  Fortes neiges  Fortes précipitations  Vent > 20 kt
SIGMETs :   Divers  Orages  Givrage  Turbulence  Onde Orograph.  Cendres Volcan.






- Altitude de l'aérodrome : 302 ft
- Code IATA : CGN


EDDK - Cologne Bonn

DERNIER METAR :
  • 270520Z 12005KT 080V140 CAVOK 12/07 Q1034 NOSIG

METARs EXPIRÉS :
  • 270450Z VRB01KT CAVOK 12/07 Q1034 NOSIG
  • 270420Z VRB02KT CAVOK 08/06 Q1034 NOSIG
  • 270350Z VRB02KT CAVOK 08/06 Q1034 NOSIG
  • 270320Z VRB01KT CAVOK 10/06 Q1033 NOSIG
  • 270250Z 05003KT CAVOK 10/06 Q1033 NOSIG

TAF TAF EDDK
Valide du 27 à 06h jusqu'au 28 à 12h UTC


270500Z 2706/2812 VRB03KT CAVOK
BECMG 2709/2712 30005KT
BECMG 2716/2719 36006KT
TEMPO 2809/2812 01011KT



MET'MAP, la Météo Aéronautique d'un coup d'oeil ! - Copyright ORBIFLY Décembre 2007 - Disclaimer

ORBIFLY MET'MAP TEAM :

Programmation & Développement : Alexandra Zaïnal
Sur une idée originale de : Baudouin d'Aumeries
Assistance à la programmation : Marc-Olivier Méhu
Soutien technique & logistique : Manuel Goepfert

Contact : metmap@orbifly.com




SOURCES & CREDITS :

   NOAA